WATT

El Tari Airport

Kupang-Timor Island, Indonesia
TAF WATT 212300Z 2200/2224 13006KT 9999 FEW018 BECMG 2202/2204 13010G25KT TEMPO 2206/2210 30010KT
Issued Valid From Valid To
Sep-21 @ 23:00 UTC
(4 hours ago)
Sep-22 @ 00:00 UTC
(3 hours ago)
Sep-23 @ 00:00 UTC
(in 21 hours)
to
to
to
TAF WATT 212300Z 2200/2224 13006KT 9999 FEW018 BECMG 2202/2204 13010G25KT TEMPO 2206/2210 30010KT
Issued Sep-21 @ 23:00 UTC
(4 hours ago)
Valid From Sep-22 @ 00:00 UTC
(3 hours ago)
Valid To Sep-23 @ 00:00 UTC
(in 21 hours)
-
-
-